Time;durP1;ratioP1;P1;durP2;ratioP2;P2;SDS_P1;SDS_P2;PMS_P1;PMS_P2;Temp;Humidity;BMP_temperature;BMP_pressure;BME280_temperature;BME280_humidity;BME280_pressure;Samples;Min_cycle;Max_cycle;Signal;HPM_P1;HPM_P2
2023/03/31 00:02:00;;;;;;;67.88;11.75;;;11.90;99.90;;;;;;5021632;28;20178;-85
2023/03/31 00:04:27;;;;;;;72.18;9.88;;;11.90;99.90;;;;;;5022904;28;20185;-84
2023/03/31 00:06:53;;;;;;;74.70;11.25;;;11.90;99.90;;;;;;5023061;28;20244;-84
2023/03/31 00:09:20;;;;;;;69.78;9.52;;;11.90;99.90;;;;;;5020270;28;20776;-84
2023/03/31 00:11:51;;;;;;;69.97;11.77;;;11.80;99.90;;;;;;5022621;28;20181;-84
2023/03/31 00:14:18;;;;;;;71.43;15.70;;;11.90;99.90;;;;;;5021658;28;20197;-84
2023/03/31 00:16:44;;;;;;;74.88;16.60;;;11.90;99.90;;;;;;5023649;28;20160;-84
2023/03/31 00:19:18;;;;;;;72.77;13.93;;;11.90;99.90;;;;;;5023407;28;20240;-84
2023/03/31 00:21:46;;;;;;;74.72;19.23;;;11.90;99.90;;;;;;5023495;28;20405;-84
2023/03/31 00:24:13;;;;;;;71.13;18.55;;;12.00;99.90;;;;;;5023528;28;20185;-84
2023/03/31 00:26:39;;;;;;;72.18;18.52;;;12.00;99.90;;;;;;5022878;28;20189;-84
2023/03/31 00:29:07;;;;;;;73.60;19.00;;;12.00;99.90;;;;;;5022116;28;20170;-84
2023/03/31 00:31:33;;;;;;;71.75;19.30;;;12.00;99.90;;;;;;5023407;28;20404;-84
2023/03/31 00:33:59;;;;;;;72.55;18.92;;;12.00;99.90;;;;;;5023185;28;20204;-84
2023/03/31 00:36:28;;;;;;;71.43;18.00;;;12.10;99.90;;;;;;5022034;28;20165;-84
2023/03/31 00:38:59;;;;;;;73.15;16.63;;;12.00;99.90;;;;;;5022638;28;20162;-84
2023/03/31 00:41:26;;;;;;;76.32;16.98;;;12.00;99.90;;;;;;5024553;28;20151;-84
2023/03/31 00:44:11;;;;;;;73.97;15.57;;;12.00;99.90;;;;;;5023603;28;20212;-84
2023/03/31 00:47:06;;;;;;;69.70;14.13;;;12.00;99.90;;;;;;5022676;28;20162;-84
2023/03/31 00:49:40;;;;;;;73.28;13.40;;;12.00;99.90;;;;;;5024588;28;20170;-84
2023/03/31 00:52:14;;;;;;;71.38;11.88;;;12.00;99.90;;;;;;5023765;28;20204;-84
2023/03/31 00:54:43;;;;;;;69.25;12.32;;;12.00;99.90;;;;;;5023095;28;20179;-84
2023/03/31 00:57:09;;;;;;;74.95;12.75;;;12.00;99.90;;;;;;5024191;28;20147;-84
2023/03/31 00:59:43;;;;;;;69.07;14.00;;;12.00;99.90;;;;;;5023905;28;20173;-84
2023/03/31 01:02:11;;;;;;;73.47;15.80;;;12.00;99.90;;;;;;5023402;28;20415;-84
2023/03/31 01:04:45;;;;;;;69.72;13.50;;;11.90;99.90;;;;;;5023571;28;20166;-84
2023/03/31 01:07:21;;;;;;;72.22;13.85;;;11.80;99.90;;;;;;5023302;28;20162;-84
2023/03/31 01:09:49;;;;;;;71.57;12.43;;;11.80;99.90;;;;;;5023303;28;20516;-84
2023/03/31 01:12:17;;;;;;;70.95;14.05;;;11.80;99.90;;;;;;5023022;28;20201;-84
2023/03/31 01:14:42;;;;;;;71.65;12.10;;;11.80;99.90;;;;;;5026918;28;20217;-84
2023/03/31 01:17:09;;;;;;;72.07;14.50;;;11.80;99.90;;;;;;5025608;28;20174;-83
2023/03/31 01:20:05;;;;;;;76.10;13.55;;;11.80;99.90;;;;;;5026034;28;20181;-84
2023/03/31 01:22:40;;;;;;;70.60;12.60;;;11.70;99.90;;;;;;5027845;28;20186;-84
2023/03/31 01:25:37;;;;;;;73.35;13.57;;;11.70;99.90;;;;;;5026604;28;20200;-84
2023/03/31 01:28:40;;;;;;;70.00;13.80;;;11.70;99.90;;;;;;5026617;28;20147;-84
2023/03/31 01:31:31;;;;;;;73.15;11.30;;;11.70;99.90;;;;;;5027048;28;20259;-84
2023/03/31 01:34:17;;;;;;;71.65;12.27;;;11.70;99.90;;;;;;5000603;28;20227;-84
2023/03/31 01:37:14;;;;;;;70.65;12.48;;;11.70;99.90;;;;;;5027406;28;20230;-84
2023/03/31 01:40:10;;;;;;;74.75;17.83;;;11.60;99.90;;;;;;5026804;28;20154;-84
2023/03/31 01:42:41;;;;;;;69.63;11.70;;;11.60;99.90;;;;;;5026642;28;20181;-84
2023/03/31 01:45:26;;;;;;;70.10;14.18;;;11.60;99.90;;;;;;5025805;28;20245;-84
2023/03/31 01:47:58;;;;;;;73.70;16.15;;;11.60;99.90;;;;;;5025700;28;20178;-84
2023/03/31 01:50:58;;;;;;;71.53;14.27;;;11.60;99.90;;;;;;5027072;28;20169;-84
2023/03/31 01:53:30;;;;;;;71.70;14.43;;;11.60;99.90;;;;;;4990630;28;20209;-84
2023/03/31 01:56:14;;;;;;;72.47;14.32;;;11.60;99.90;;;;;;5025253;28;20185;-84
2023/03/31 01:58:45;;;;;;;71.30;12.02;;;11.60;99.90;;;;;;5024995;28;20185;-83
2023/03/31 02:01:28;;;;;;;75.78;13.15;;;11.60;99.90;;;;;;5024641;28;20170;-84
2023/03/31 02:04:19;;;;;;;73.00;11.15;;;11.60;99.90;;;;;;5025772;28;20661;-84
2023/03/31 02:06:51;;;;;;;81.90;11.80;;;11.60;99.90;;;;;;5012250;28;20198;-83
2023/03/31 02:09:21;;;;;;;78.47;12.57;;;11.70;99.90;;;;;;5021800;28;20153;-84
2023/03/31 02:11:49;;;;;;;75.13;13.07;;;11.70;99.90;;;;;;5020886;28;20584;-84
2023/03/31 02:14:20;;;;;;;76.93;13.07;;;11.70;99.90;;;;;;5022942;28;20581;-84
2023/03/31 02:16:51;;;;;;;72.50;12.68;;;11.70;99.90;;;;;;5023646;28;20154;-84
2023/03/31 02:19:18;;;;;;;78.05;14.05;;;11.80;99.90;;;;;;5023566;28;20511;-84
2023/03/31 02:21:49;;;;;;;79.47;15.23;;;11.80;99.90;;;;;;5023632;28;20176;-83
2023/03/31 02:24:18;;;;;;;74.10;14.15;;;11.80;99.90;;;;;;5024198;28;20185;-84
2023/03/31 02:26:53;;;;;;;72.38;12.75;;;11.80;99.90;;;;;;5024614;28;20160;-84
2023/03/31 02:29:19;;;;;;;75.03;13.35;;;11.70;99.90;;;;;;5025018;28;20148;-84
2023/03/31 02:31:47;;;;;;;76.18;13.68;;;11.70;99.90;;;;;;5025064;28;20634;-84
2023/03/31 02:34:14;;;;;;;73.68;14.55;;;11.80;99.90;;;;;;5022742;28;20182;-84
2023/03/31 02:36:42;;;;;;;72.07;13.27;;;11.70;99.90;;;;;;5023926;28;20206;-84
2023/03/31 02:39:13;;;;;;;79.55;15.43;;;11.70;99.90;;;;;;5025676;28;20158;-84
2023/03/31 02:41:40;;;;;;;75.68;13.95;;;11.60;99.90;;;;;;5025591;28;20210;-84
2023/03/31 02:44:05;;;;;;;74.85;16.35;;;11.50;99.90;;;;;;5025304;28;20182;-84
2023/03/31 02:46:32;;;;;;;75.20;15.27;;;11.60;99.90;;;;;;5022283;28;20180;-84
2023/03/31 02:49:01;;;;;;;77.38;15.23;;;11.60;99.90;;;;;;5022728;28;20166;-84
2023/03/31 02:51:42;;;;;;;72.13;16.75;;;11.50;99.90;;;;;;5022585;28;20166;-84
2023/03/31 02:54:23;;;;;;;74.38;15.25;;;11.50;99.90;;;;;;5021486;28;20193;-84
2023/03/31 02:57:31;;;;;;;72.63;15.30;;;11.40;99.90;;;;;;5020845;28;20170;-84
2023/03/31 03:00:35;;;;;;;73.70;13.65;;;11.40;99.90;;;;;;4996155;28;20174;-84
2023/03/31 03:03:19;;;;;;;75.40;14.13;;;11.40;99.90;;;;;;5025159;28;20181;-84
2023/03/31 03:06:36;;;;;;;72.63;14.15;;;11.40;99.90;;;;;;5023845;28;20172;-84
2023/03/31 03:09:30;;;;;;;75.57;12.25;;;11.40;99.90;;;;;;4949279;29;20167;-84
2023/03/31 03:12:08;;;;;;;75.82;14.55;;;11.40;99.90;;;;;;5023695;28;20169;-85
2023/03/31 03:14:47;;;;;;;70.38;13.98;;;11.30;99.90;;;;;;5023734;28;20209;-84
2023/03/31 03:17:38;;;;;;;75.20;15.25;;;11.30;99.90;;;;;;5021500;28;20149;-84
2023/03/31 03:20:08;;;;;;;74.63;17.02;;;11.30;99.90;;;;;;5025297;28;20253;-84
2023/03/31 03:22:36;;;;;;;73.32;16.25;;;11.30;99.90;;;;;;5022981;28;20186;-84
2023/03/31 03:25:03;;;;;;;70.63;17.55;;;11.30;99.90;;;;;;5024951;28;20253;-84
2023/03/31 03:27:29;;;;;;;77.95;24.42;;;11.20;99.90;;;;;;5024086;28;20170;-84
2023/03/31 03:29:55;;;;;;;78.07;23.97;;;11.20;99.90;;;;;;5024313;28;20170;-84
2023/03/31 03:32:21;;;;;;;78.65;27.17;;;11.10;99.90;;;;;;5024262;28;20196;-84
2023/03/31 03:34:46;;;;;;;74.30;24.37;;;11.20;99.90;;;;;;5021084;28;20182;-84
2023/03/31 03:37:12;;;;;;;76.80;23.03;;;11.20;99.90;;;;;;5020233;28;20169;-85
2023/03/31 03:39:37;;;;;;;74.50;18.50;;;11.20;99.90;;;;;;5020375;28;20211;-84
2023/03/31 03:42:03;;;;;;;78.70;22.37;;;11.20;99.90;;;;;;5022884;28;20244;-84
2023/03/31 03:44:29;;;;;;;82.13;24.30;;;11.10;99.90;;;;;;5022438;28;20178;-84
2023/03/31 03:46:55;;;;;;;76.60;22.77;;;11.10;99.90;;;;;;5024070;28;20166;-84
2023/03/31 03:49:21;;;;;;;76.60;22.13;;;11.10;99.90;;;;;;5019852;28;20166;-84
2023/03/31 03:51:46;;;;;;;71.80;14.00;;;11.10;99.90;;;;;;5021328;28;20212;-84
2023/03/31 03:54:12;;;;;;;77.83;17.37;;;11.10;99.90;;;;;;5021283;28;20239;-84
2023/03/31 03:56:38;;;;;;;74.70;14.68;;;11.20;99.90;;;;;;5022158;28;20169;-84
2023/03/31 03:59:04;;;;;;;73.53;12.80;;;11.20;99.90;;;;;;5020323;28;20203;-84
2023/03/31 04:01:30;;;;;;;68.57;12.20;;;11.30;99.90;;;;;;5020641;28;20174;-84
2023/03/31 04:03:56;;;;;;;74.75;14.68;;;11.30;99.90;;;;;;5023985;28;20174;-84
2023/03/31 04:06:23;;;;;;;70.30;10.20;;;11.30;99.90;;;;;;5023522;28;20170;-84
2023/03/31 04:08:48;;;;;;;70.57;11.48;;;11.20;99.90;;;;;;5020966;28;20227;-84
2023/03/31 04:11:17;;;;;;;69.00;13.03;;;11.20;99.90;;;;;;5021406;28;20257;-84
2023/03/31 04:13:43;;;;;;;70.18;11.13;;;11.20;99.90;;;;;;5022419;28;20197;-84
2023/03/31 04:16:09;;;;;;;70.50;14.45;;;11.20;99.90;;;;;;5024595;28;20173;-84
2023/03/31 04:18:41;;;;;;;72.30;19.57;;;11.20;99.90;;;;;;5020351;28;20526;-84
2023/03/31 04:21:21;;;;;;;75.63;20.85;;;11.20;99.90;;;;;;5025159;28;20374;-84
2023/03/31 04:23:57;;;;;;;72.00;15.95;;;11.30;99.90;;;;;;5023802;28;20189;-84
2023/03/31 04:26:29;;;;;;;70.63;16.75;;;11.30;99.90;;;;;;5023415;28;20150;-84
2023/03/31 04:28:59;;;;;;;69.85;15.65;;;11.30;99.90;;;;;;5024109;28;20156;-84
2023/03/31 04:31:25;;;;;;;73.28;14.88;;;11.20;99.90;;;;;;5019029;28;20176;-84
2023/03/31 04:33:55;;;;;;;70.95;16.60;;;11.20;99.90;;;;;;5020835;28;20197;-84
2023/03/31 04:36:21;;;;;;;70.38;18.77;;;11.20;99.90;;;;;;5020197;28;20174;-84
2023/03/31 04:38:54;;;;;;;71.70;16.83;;;11.20;99.90;;;;;;5019007;28;20192;-84
2023/03/31 04:41:22;;;;;;;72.30;16.77;;;11.20;99.90;;;;;;5025852;28;20150;-84
2023/03/31 04:43:47;;;;;;;71.00;17.10;;;11.30;99.90;;;;;;5024699;28;20182;-84
2023/03/31 04:46:13;;;;;;;70.23;12.97;;;11.30;99.90;;;;;;5023431;28;20733;-83
2023/03/31 04:48:39;;;;;;;71.90;14.32;;;11.30;99.90;;;;;;5023409;28;20162;-84
2023/03/31 04:51:06;;;;;;;73.30;14.97;;;11.30;99.90;;;;;;5024520;28;20172;-84
2023/03/31 04:53:31;;;;;;;68.32;11.00;;;11.20;99.90;;;;;;5027246;28;20268;-84
2023/03/31 04:55:57;;;;;;;74.13;12.60;;;11.20;99.90;;;;;;5027794;28;20170;-84
2023/03/31 04:58:23;;;;;;;68.47;15.45;;;11.20;99.90;;;;;;5027502;28;20431;-84
2023/03/31 05:00:51;;;;;;;69.30;12.47;;;11.20;99.90;;;;;;5024433;28;20241;-84
2023/03/31 05:03:17;;;;;;;67.28;9.98;;;11.20;99.90;;;;;;5023671;28;20196;-84
2023/03/31 05:05:43;;;;;;;66.90;8.63;;;11.20;99.90;;;;;;5022727;28;20188;-84
2023/03/31 05:08:09;;;;;;;74.07;11.03;;;11.30;99.90;;;;;;5023428;28;20170;-84
2023/03/31 05:10:34;;;;;;;70.07;13.17;;;11.20;99.90;;;;;;5023110;28;20172;-84
2023/03/31 05:13:00;;;;;;;68.97;10.00;;;11.20;99.90;;;;;;5022219;28;20464;-83
2023/03/31 05:15:26;;;;;;;66.07;10.10;;;11.20;99.90;;;;;;5026604;28;20553;-84
2023/03/31 05:17:52;;;;;;;72.13;11.17;;;11.20;99.90;;;;;;5024054;28;20165;-84
2023/03/31 05:20:19;;;;;;;65.82;7.63;;;11.30;99.90;;;;;;5026825;28;20195;-83
2023/03/31 05:22:46;;;;;;;69.20;13.52;;;11.30;99.90;;;;;;5026387;28;20585;-83
2023/03/31 05:25:19;;;;;;;74.18;12.70;;;11.20;99.90;;;;;;5025431;28;20158;-83
2023/03/31 05:27:48;;;;;;;68.63;11.23;;;11.30;99.90;;;;;;5024665;28;20209;-83
2023/03/31 05:30:16;;;;;;;67.30;7.68;;;11.30;99.90;;;;;;5025761;28;20169;-83
2023/03/31 05:32:42;;;;;;;67.55;7.35;;;11.30;99.90;;;;;;5026276;28;20197;-83
2023/03/31 05:35:08;;;;;;;65.45;6.53;;;11.40;99.90;;;;;;5021419;28;20166;-83
2023/03/31 05:37:34;;;;;;;66.13;7.50;;;11.40;99.90;;;;;;5024619;28;20169;-83
2023/03/31 05:40:00;;;;;;;69.97;8.20;;;11.40;99.90;;;;;;5024810;28;20173;-83
2023/03/31 05:42:27;;;;;;;65.50;7.30;;;11.30;99.90;;;;;;5025971;28;20397;-83
2023/03/31 05:44:52;;;;;;;65.70;8.85;;;11.30;99.90;;;;;;5019721;28;20632;-82
2023/03/31 05:47:18;;;;;;;65.87;6.87;;;11.40;99.90;;;;;;5023856;28;20185;-83
2023/03/31 05:49:44;;;;;;;67.27;7.17;;;11.40;99.90;;;;;;5020205;28;20169;-81
2023/03/31 05:52:10;;;;;;;65.55;7.10;;;11.40;99.90;;;;;;5018162;28;20165;-82
2023/03/31 05:54:35;;;;;;;66.40;7.00;;;11.40;99.90;;;;;;5089334;22;20221;-81
2023/03/31 05:57:01;;;;;;;65.80;5.73;;;11.40;99.90;;;;;;5019609;28;20220;-80
2023/03/31 05:59:27;;;;;;;68.00;7.90;;;11.40;99.90;;;;;;5017001;28;20166;-81
2023/03/31 06:01:57;;;;;;;65.70;6.60;;;11.40;99.90;;;;;;5019746;28;20396;-80
2023/03/31 06:04:23;;;;;;;70.05;7.78;;;11.40;99.90;;;;;;5019468;28;20452;-80
2023/03/31 06:06:49;;;;;;;66.50;7.28;;;11.50;99.90;;;;;;5017778;28;20169;-78
2023/03/31 06:09:16;;;;;;;66.97;5.60;;;11.40;99.90;;;;;;5016229;28;20166;-78
2023/03/31 06:11:41;;;;;;;65.10;6.18;;;11.40;99.90;;;;;;5015894;28;20409;-78
2023/03/31 06:14:07;;;;;;;66.23;7.27;;;11.40;99.90;;;;;;5017188;28;20197;-78
2023/03/31 06:16:33;;;;;;;65.23;6.40;;;11.30;99.90;;;;;;5016906;28;20572;-77
2023/03/31 06:18:59;;;;;;;66.60;6.80;;;11.30;99.90;;;;;;5016858;28;20224;-78
2023/03/31 06:21:24;;;;;;;65.47;5.70;;;11.30;99.90;;;;;;5016797;28;20162;-78
2023/03/31 06:23:53;;;;;;;69.50;5.97;;;11.40;99.90;;;;;;5016687;28;20239;-77
2023/03/31 06:26:20;;;;;;;64.72;6.22;;;11.40;99.90;;;;;;5015228;28;20549;-77
2023/03/31 06:28:46;;;;;;;65.13;6.40;;;11.30;99.90;;;;;;5016165;28;20170;-77
2023/03/31 06:31:14;;;;;;;64.97;6.97;;;11.30;99.90;;;;;;5016498;28;20177;-77
2023/03/31 06:33:41;;;;;;;65.95;5.60;;;11.20;99.90;;;;;;5016876;28;20820;-77
2023/03/31 06:36:08;;;;;;;65.38;6.05;;;11.20;99.90;;;;;;5016181;28;20177;-77
2023/03/31 06:38:37;;;;;;;65.32;6.80;;;11.20;99.90;;;;;;5016225;28;20166;-77
2023/03/31 06:41:03;;;;;;;65.55;5.85;;;11.20;99.90;;;;;;5015097;28;20181;-77
2023/03/31 06:43:28;;;;;;;64.85;6.57;;;11.20;99.90;;;;;;5016403;28;20193;-77
2023/03/31 06:45:55;;;;;;;64.03;5.87;;;11.20;99.90;;;;;;5016301;28;20158;-78
2023/03/31 06:48:23;;;;;;;64.45;5.15;;;11.30;99.90;;;;;;5016696;28;20200;-78
2023/03/31 06:50:49;;;;;;;64.65;5.32;;;11.30;99.90;;;;;;5016345;28;20166;-78
2023/03/31 06:53:15;;;;;;;63.97;4.40;;;11.30;99.90;;;;;;5016315;28;20224;-77
2023/03/31 06:55:41;;;;;;;64.87;4.17;;;11.40;99.90;;;;;;5016089;28;20452;-77
2023/03/31 06:58:07;;;;;;;65.40;3.63;;;11.40;99.90;;;;;;5014848;28;20424;-77
2023/03/31 07:00:33;;;;;;;64.17;3.90;;;11.50;99.90;;;;;;5016077;28;20579;-77
2023/03/31 07:03:00;;;;;;;63.72;3.35;;;11.50;99.90;;;;;;5015910;28;20596;-77
2023/03/31 07:05:27;;;;;;;66.10;3.95;;;11.60;99.90;;;;;;5016011;28;20174;-77
2023/03/31 07:07:54;;;;;;;65.18;3.33;;;11.70;99.90;;;;;;5014874;28;20598;-77
2023/03/31 07:10:21;;;;;;;64.20;4.03;;;11.70;99.90;;;;;;5014550;28;20227;-78
2023/03/31 07:12:47;;;;;;;65.53;3.80;;;11.90;99.90;;;;;;5015838;28;20205;-78
2023/03/31 07:15:12;;;;;;;66.37;3.90;;;11.90;99.90;;;;;;5015999;28;20671;-78
2023/03/31 07:17:41;;;;;;;65.43;4.53;;;12.00;99.90;;;;;;5014754;28;20664;-78
2023/03/31 07:20:13;;;;;;;63.72;3.35;;;12.10;99.90;;;;;;5016001;28;20162;-78
2023/03/31 07:22:46;;;;;;;64.18;4.03;;;12.10;99.90;;;;;;5015768;28;20188;-78
2023/03/31 07:25:14;;;;;;;64.40;3.75;;;12.10;99.90;;;;;;5016354;28;20158;-78
2023/03/31 07:27:40;;;;;;;64.82;3.80;;;12.00;99.90;;;;;;5016348;28;20207;-78
2023/03/31 07:30:08;;;;;;;65.10;4.22;;;12.00;99.90;;;;;;5015312;28;20180;-78
2023/03/31 07:32:40;;;;;;;64.18;4.75;;;12.00;99.90;;;;;;5016348;28;20320;-78
2023/03/31 07:35:10;;;;;;;65.40;4.22;;;12.00;99.90;;;;;;5015038;28;20190;-78
2023/03/31 07:37:44;;;;;;;64.05;3.88;;;12.10;99.90;;;;;;5015156;28;20197;-78
2023/03/31 07:40:37;;;;;;;64.63;4.28;;;12.20;99.90;;;;;;5015371;28;20181;-78
2023/03/31 07:43:05;;;;;;;66.85;4.20;;;12.20;99.90;;;;;;4977550;28;20221;-78
2023/03/31 07:45:31;;;;;;;64.93;4.03;;;12.30;99.90;;;;;;5014739;28;20169;-78
2023/03/31 07:48:01;;;;;;;64.65;4.72;;;12.30;99.90;;;;;;5016174;28;20166;-78
2023/03/31 07:50:54;;;;;;;65.88;3.75;;;12.50;99.90;;;;;;5015664;28;20618;-78
2023/03/31 07:53:20;;;;;;;68.93;3.85;;;12.70;99.90;;;;;;5005474;28;20624;-78
2023/03/31 07:55:47;;;;;;;64.17;3.77;;;12.60;99.90;;;;;;5015033;28;20233;-78
2023/03/31 07:58:13;;;;;;;65.30;5.40;;;12.70;99.90;;;;;;5014740;28;20202;-78
2023/03/31 08:00:39;;;;;;;63.97;4.10;;;12.70;99.90;;;;;;5016887;28;20166;-78
2023/03/31 08:03:05;;;;;;;67.33;4.23;;;12.90;99.90;;;;;;5016295;28;20214;-78
2023/03/31 08:05:31;;;;;;;66.15;4.00;;;13.00;99.90;;;;;;5015693;28;20165;-78
2023/03/31 08:07:57;;;;;;;65.55;3.95;;;13.10;99.90;;;;;;5016865;28;20184;-78
2023/03/31 08:10:27;;;;;;;64.27;4.00;;;13.10;99.90;;;;;;5015698;28;20217;-78
2023/03/31 08:12:56;;;;;;;66.43;3.65;;;13.10;99.90;;;;;;5014825;28;20692;-78
2023/03/31 08:15:25;;;;;;;66.45;3.90;;;13.00;99.90;;;;;;5015820;28;20186;-78
2023/03/31 08:17:51;;;;;;;65.15;4.18;;;13.10;99.90;;;;;;5016497;28;20201;-78
2023/03/31 08:20:16;;;;;;;66.10;5.70;;;13.20;99.90;;;;;;5016587;28;20161;-78
2023/03/31 08:22:42;;;;;;;71.33;6.30;;;13.30;99.90;;;;;;5016976;28;20197;-78
2023/03/31 08:25:11;;;;;;;68.47;7.07;;;13.40;99.90;;;;;;5018997;28;20178;-78
2023/03/31 08:27:39;;;;;;;71.68;7.07;;;13.50;99.90;;;;;;5019971;28;20412;-78
2023/03/31 08:30:10;;;;;;;69.05;7.82;;;13.50;99.90;;;;;;5021913;28;20166;-79
2023/03/31 08:32:36;;;;;;;65.68;6.75;;;13.60;99.90;;;;;;5020484;28;20735;-79
2023/03/31 08:35:02;;;;;;;66.72;6.80;;;13.60;95.40;;;;;;5019971;28;20277;-79
2023/03/31 08:37:28;;;;;;;69.15;4.22;;;13.50;90.50;;;;;;5021675;28;20172;-79
2023/03/31 08:39:54;;;;;;;72.00;4.97;;;13.50;90.70;;;;;;5021536;28;20186;-79
2023/03/31 08:42:47;;;;;;;68.65;4.63;;;13.60;90.80;;;;;;5020021;28;20220;-79
2023/03/31 08:45:33;;;;;;;70.60;4.00;;;13.60;91.20;;;;;;5021676;28;20629;-79
2023/03/31 08:48:09;;;;;;;72.72;5.70;;;13.70;81.20;;;;;;5020501;28;20170;-79
2023/03/31 08:50:42;;;;;;;69.10;4.50;;;13.70;90.60;;;;;;5019211;28;20168;-79
2023/03/31 08:53:19;;;;;;;71.28;4.57;;;13.70;86.60;;;;;;5020815;28;20201;-79
2023/03/31 08:55:51;;;;;;;69.78;3.95;;;13.80;90.40;;;;;;5020796;28;20235;-79
2023/03/31 08:58:23;;;;;;;67.22;4.00;;;13.80;87.80;;;;;;5019429;28;20598;-79
2023/03/31 09:01:15;;;;;;;70.28;5.07;;;13.80;89.90;;;;;;5020693;28;20223;-79
2023/03/31 09:03:51;;;;;;;71.88;4.32;;;13.90;88.80;;;;;;5003664;28;20208;-79
2023/03/31 09:06:26;;;;;;;70.18;6.40;;;13.90;86.80;;;;;;5020301;28;20228;-79
2023/03/31 09:08:59;;;;;;;69.60;4.60;;;14.00;87.80;;;;;;5020578;28;20160;-79
2023/03/31 09:11:37;;;;;;;67.72;4.43;;;14.10;74.40;;;;;;5020352;28;20158;-79
2023/03/31 09:14:37;;;;;;;75.60;4.70;;;14.30;74.20;;;;;;5019484;28;20754;-79
2023/03/31 09:17:26;;;;;;;66.57;4.10;;;14.40;81.30;;;;;;5019505;28;20204;-79
2023/03/31 09:19:58;;;;;;;69.68;3.90;;;14.70;69.80;;;;;;5020782;28;20384;-80
2023/03/31 09:22:31;;;;;;;69.75;4.72;;;14.90;62.20;;;;;;5020291;28;20627;-79
2023/03/31 09:25:35;;;;;;;71.97;4.47;;;15.10;52.40;;;;;;5019262;28;20162;-79
2023/03/31 09:28:03;;;;;;;71.25;3.83;;;15.20;54.60;;;;;;4976573;28;20420;-78
2023/03/31 09:30:32;;;;;;;70.37;4.83;;;15.30;59.40;;;;;;5019069;28;20169;-78
2023/03/31 09:35:26;;;;;;;73.90;3.87;;;15.30;31.10;;;;;;5087010;23;20414;-78
2023/03/31 09:37:52;;;;;;;69.97;5.30;;;15.10;44.90;;;;;;5018787;28;20390;-78
2023/03/31 09:40:24;;;;;;;66.17;3.67;;;14.80;58.70;;;;;;5016813;28;20492;-78
2023/03/31 09:43:23;;;;;;;68.60;3.97;;;14.50;55.50;;;;;;5017341;28;20420;-78
2023/03/31 09:45:49;;;;;;;67.03;4.40;;;14.10;82.40;;;;;;5011123;28;20492;-77
2023/03/31 09:48:34;;;;;;;68.20;3.90;;;14.10;81.70;;;;;;5017977;28;20626;-78
2023/03/31 09:51:06;;;;;;;69.97;5.20;;;14.20;72.20;;;;;;5017348;28;20396;-78
2023/03/31 09:53:55;;;;;;;66.63;4.10;;;14.20;66.70;;;;;;5017739;28;20452;-78
2023/03/31 09:56:40;;;;;;;69.60;4.28;;;14.40;59.00;;;;;;5016534;28;20168;-78
2023/03/31 09:59:16;;;;;;;70.20;4.30;;;14.60;49.10;;;;;;5017889;28;20197;-78
2023/03/31 10:01:48;;;;;;;71.10;4.47;;;14.80;42.30;;;;;;5018387;28;20865;-78
2023/03/31 10:04:23;;;;;;;69.27;3.60;;;15.00;44.50;;;;;;5017937;28;20478;-78
2023/03/31 10:06:51;;;;;;;73.17;6.37;;;15.10;27.70;;;;;;5017298;28;20444;-78
2023/03/31 10:09:21;;;;;;;71.53;3.50;;;15.10;21.90;;;;;;5018144;28;20745;-78
2023/03/31 10:11:54;;;;;;;69.33;5.70;;;15.00;23.20;;;;;;5018755;28;20417;-78
2023/03/31 10:14:26;;;;;;;69.90;4.10;;;15.00;29.10;;;;;;5018482;28;20539;-79
2023/03/31 10:16:56;;;;;;;70.73;4.20;;;15.00;22.20;;;;;;5016778;28;20409;-79
2023/03/31 10:19:31;;;;;;;72.70;4.97;;;14.90;26.40;;;;;;5015999;28;20424;-78
2023/03/31 10:22:06;;;;;;;70.73;4.10;;;15.00;29.70;;;;;;5018256;28;20385;-78
2023/03/31 10:25:17;;;;;;;67.37;4.17;;;15.10;27.30;;;;;;5017657;28;20757;-79
2023/03/31 10:27:46;;;;;;;71.00;3.23;;;15.30;17.10;;;;;;4998472;28;20421;-78
2023/03/31 10:30:17;;;;;;;70.57;4.77;;;15.30;24.50;;;;;;5017614;28;20405;-78
2023/03/31 10:32:43;;;;;;;66.97;4.07;;;15.50;15.90;;;;;;5015954;28;20480;-78
2023/03/31 10:35:20;;;;;;;71.07;6.20;;;15.70;20.30;;;;;;5018509;28;20408;-78
2023/03/31 10:37:49;;;;;;;71.80;5.90;;;15.80;1.00;;;;;;5017476;28;20400;-78
2023/03/31 10:40:22;;;;;;;93.23;6.70;;;15.80;7.60;;;;;;5016939;28;20397;-79
2023/03/31 10:43:16;;;;;;;70.97;6.67;;;15.90;1.00;;;;;;5018047;28;20475;-79
2023/03/31 10:45:49;;;;;;;73.00;7.90;;;15.90;1.00;;;;;;5017558;28;20944;-78
2023/03/31 10:48:33;;;;;;;69.00;7.80;;;16.00;1.00;;;;;;5017248;28;20412;-78
2023/03/31 10:51:07;;;;;;;69.90;6.60;;;16.10;1.00;;;;;;5016167;28;20377;-79
2023/03/31 10:53:45;;;;;;;68.83;6.60;;;16.10;5.00;;;;;;5015536;28;20480;-78
2023/03/31 10:56:25;;;;;;;68.73;6.67;;;16.30;1.00;;;;;;5016061;28;20392;-78
2023/03/31 10:58:53;;;;;;;67.17;6.60;;;15.90;1.00;;;;;;5016763;28;20468;-79
2023/03/31 11:01:37;;;;;;;68.43;7.30;;;15.70;1.00;;;;;;5017226;28;20405;-78
2023/03/31 11:05:05;;;;;;;66.50;6.33;;;15.60;1.00;;;;;;5016846;28;20420;-78
2023/03/31 11:07:47;;;;;;;67.40;6.73;;;15.50;1.00;;;;;;4937508;29;20537;-78
2023/03/31 11:10:34;;;;;;;66.50;6.30;;;15.40;1.00;;;;;;4921378;29;20470;-78
2023/03/31 11:13:20;;;;;;;67.57;6.03;;;15.40;2.30;;;;;;4994358;28;20487;-78
2023/03/31 11:16:12;;;;;;;68.77;6.50;;;15.40;9.30;;;;;;5017258;28;20389;-78
2023/03/31 11:19:07;;;;;;;71.57;9.80;;;15.30;5.70;;;;;;5017014;28;20387;-79
2023/03/31 11:21:44;;;;;;;67.53;5.77;;;15.30;8.70;;;;;;5017069;28;20412;-78
2023/03/31 11:24:25;;;;;;;69.67;6.23;;;15.40;14.10;;;;;;5016594;28;20439;-78
2023/03/31 11:27:32;;;;;;;70.03;8.30;;;15.60;16.50;;;;;;5017037;28;20465;-78
2023/03/31 11:30:27;;;;;;;69.57;7.07;;;15.60;7.40;;;;;;4994248;28;20425;-78
2023/03/31 11:33:37;;;;;;;70.10;7.63;;;15.60;3.00;;;;;;5016307;28;20456;-78
2023/03/31 11:36:16;;;;;;;66.30;5.73;;;15.40;12.90;;;;;;5016119;28;20555;-78
2023/03/31 11:39:06;;;;;;;70.37;6.30;;;15.60;13.30;;;;;;5016137;28;20377;-78
2023/03/31 11:41:52;;;;;;;67.47;7.07;;;15.60;5.10;;;;;;5016162;28;20765;-78
2023/03/31 11:44:19;;;;;;;71.00;7.23;;;15.70;11.00;;;;;;5015505;28;20424;-78
2023/03/31 11:46:51;;;;;;;70.53;7.80;;;15.90;7.20;;;;;;5015658;28;20504;-78
2023/03/31 11:49:22;;;;;;;74.23;8.97;;;15.70;1.30;;;;;;5016045;28;20373;-78
2023/03/31 11:51:55;;;;;;;77.83;7.30;;;15.60;7.80;;;;;;5014472;28;20420;-78
2023/03/31 11:56:50;;;;;;;72.00;8.20;;;15.40;9.40;;;;;;5024259;28;20456;-83
2023/03/31 11:59:19;;;;;;;74.40;7.70;;;15.50;3.40;;;;;;5022637;28;20453;-84
2023/03/31 12:01:58;;;;;;;76.70;10.03;;;15.30;7.50;;;;;;5022073;28;20483;-84
2023/03/31 12:04:24;;;;;;;70.20;6.27;;;15.20;4.50;;;;;;5022785;28;20776;-84
2023/03/31 12:06:53;;;;;;;69.00;7.67;;;15.20;7.60;;;;;;5022266;28;20455;-84
2023/03/31 12:09:26;;;;;;;69.80;7.30;;;15.10;10.60;;;;;;5023410;28;20557;-84
2023/03/31 12:11:54;;;;;;;74.40;6.13;;;15.10;22.80;;;;;;5022604;28;20401;-84
2023/03/31 12:14:39;;;;;;;68.37;6.47;;;15.20;22.20;;;;;;5021842;28;20488;-83
2023/03/31 12:17:11;;;;;;;69.00;6.70;;;15.40;23.10;;;;;;5020879;28;20483;-84
2023/03/31 12:19:50;;;;;;;71.97;8.77;;;15.60;16.10;;;;;;5022327;28;20385;-84
2023/03/31 12:22:42;;;;;;;75.70;7.80;;;15.70;9.10;;;;;;5022669;28;20404;-84
2023/03/31 12:25:15;;;;;;;69.33;4.53;;;16.10;5.30;;;;;;5019288;28;20417;-85
2023/03/31 12:27:46;;;;;;;73.90;6.37;;;16.30;1.00;;;;;;5024205;28;20385;-84
2023/03/31 12:30:11;;;;;;;69.53;5.27;;;16.30;1.00;;;;;;5024126;28;20389;-84
2023/03/31 12:32:45;;;;;;;73.93;5.57;;;16.30;1.00;;;;;;5023459;28;20448;-84
2023/03/31 12:35:26;;;;;;;71.13;4.60;;;16.40;1.00;;;;;;5024682;28;20141;-84
2023/03/31 12:37:58;;;;;;;67.07;4.10;;;16.30;1.00;;;;;;5024819;28;20888;-84
2023/03/31 12:40:54;;;;;;;70.33;3.50;;;16.20;1.00;;;;;;5021053;28;20394;-84
2023/03/31 12:43:41;;;;;;;66.70;3.17;;;16.40;1.00;;;;;;5024244;28;20940;-84
2023/03/31 12:46:45;;;;;;;67.90;2.90;;;16.40;1.00;;;;;;5019740;28;20405;-84
2023/03/31 12:49:25;;;;;;;65.50;2.83;;;16.50;1.00;;;;;;5018412;28;20827;-84
2023/03/31 12:52:05;;;;;;;68.40;2.63;;;16.20;1.00;;;;;;5020782;28;20385;-84
2023/03/31 12:54:47;;;;;;;65.70;3.03;;;16.10;1.00;;;;;;5024928;28;20433;-83
2023/03/31 12:57:25;;;;;;;67.30;3.50;;;16.00;1.00;;;;;;5023171;28;20416;-83
2023/03/31 13:00:25;;;;;;;72.83;6.07;;;16.00;1.00;;;;;;5023623;28;20924;-85
2023/03/31 13:03:29;;;;;;;71.83;6.00;;;15.80;1.00;;;;;;5023456;28;20972;-84
2023/03/31 13:05:55;;;;;;;71.13;7.00;;;15.70;4.80;;;;;;5024608;28;20447;-84
2023/03/31 13:08:48;;;;;;;73.43;6.70;;;15.30;27.10;;;;;;5026610;28;20397;-84
2023/03/31 13:11:15;;;;;;;68.57;6.80;;;15.30;26.50;;;;;;5026718;28;20184;-84